Arctic Bay, Canada
Current Conditions -  °F | °C
As of 2:01 PM on Saturday 25 Oct 2014 (Local Time) from CYIO Reporting Station
Light Snow Light Snow  
Wind Chill: -23°   Ceiling: 1900
Heat Index: -14°   Visibility: 9mi
Dew Point: -17°   Wind: 13mph
Humidity: 79%   Direction: 170°S
Pressure: 30.16"   Gusts: NA
Location:  73.03°N, 85.17°W
Report Text: CYIO 251901Z AUTO 17011KT 9SM -SN OVC019 M14/M17 A3016 RMK SLP221
Loading
Personal Weather Stations






























Interactive Weather Map
Tropical Storm Tracking
New forecast layout! Learn more

10-Day Weather Forecast

Advertisements
Track Severe Weather on mobile